createdAt,value
2023-01-29T00:01:58.805Z,84.11
2023-01-29T00:04:26.603Z,84.04
2023-01-29T00:06:53.219Z,84.33
2023-01-29T00:09:19.829Z,84.05
2023-01-29T00:11:47.156Z,84.14
2023-01-29T00:14:13.879Z,83.96
2023-01-29T00:16:42.830Z,83.97
2023-01-29T00:19:09.553Z,84.06
2023-01-29T00:21:36.724Z,84.25
2023-01-29T00:24:03.441Z,84.17
2023-01-29T00:26:30.123Z,84.40
2023-01-29T00:29:00.699Z,84.38
2023-01-29T00:31:27.460Z,84.43
2023-01-29T00:33:54.049Z,84.63
2023-01-29T00:36:22.173Z,84.54
2023-01-29T00:38:59.745Z,84.41
2023-01-29T00:41:47.094Z,84.36
2023-01-29T00:44:32.686Z,84.31
2023-01-29T00:47:00.107Z,84.31
2023-01-29T00:49:26.711Z,84.27
2023-01-29T00:52:11.806Z,84.02
2023-01-29T00:54:38.412Z,83.82
2023-01-29T00:57:05.165Z,83.55
2023-01-29T00:59:31.940Z,83.54
2023-01-29T01:02:25.365Z,83.73
2023-01-29T01:04:51.997Z,83.57
2023-01-29T01:07:18.803Z,83.63
2023-01-29T01:10:03.883Z,83.52
2023-01-29T01:12:30.767Z,83.54
2023-01-29T01:14:57.856Z,83.53
2023-01-29T01:17:24.585Z,83.60
2023-01-29T01:19:51.218Z,83.21
2023-01-29T01:22:17.842Z,83.16
2023-01-29T01:24:44.447Z,83.00
2023-01-29T01:27:11.140Z,83.06
2023-01-29T01:29:37.991Z,82.96
2023-01-29T01:32:06.054Z,82.91
2023-01-29T01:34:32.885Z,82.67
2023-01-29T01:36:59.530Z,82.50
2023-01-29T01:39:26.092Z,82.34
2023-01-29T01:41:56.339Z,82.43
2023-01-29T01:44:59.415Z,82.26
2023-01-29T01:47:52.304Z,81.94
2023-01-29T01:50:24.236Z,81.80
2023-01-29T01:52:55.962Z,81.62
2023-01-29T01:55:26.609Z,81.81
2023-01-29T01:57:57.371Z,81.61
2023-01-29T02:00:26.112Z,81.52
2023-01-29T02:03:12.350Z,81.32
2023-01-29T02:05:58.962Z,80.98
2023-01-29T02:09:01.591Z,80.89
2023-01-29T02:11:28.174Z,80.57
2023-01-29T02:13:54.786Z,80.66
2023-01-29T02:16:22.981Z,80.64
2023-01-29T02:18:50.541Z,80.53
2023-01-29T02:21:35.250Z,80.66
2023-01-29T02:24:23.578Z,80.54
2023-01-29T02:27:04.839Z,80.56
2023-01-29T02:29:35.404Z,80.38
2023-01-29T02:32:17.604Z,80.28
2023-01-29T02:35:15.541Z,80.06
2023-01-29T02:38:11.059Z,79.69
2023-01-29T02:40:54.303Z,79.64
2023-01-29T02:43:42.505Z,79.39
2023-01-29T02:46:32.439Z,79.58
2023-01-29T02:49:22.316Z,79.63
2023-01-29T02:52:05.242Z,79.38
2023-01-29T02:54:31.919Z,79.36
2023-01-29T02:57:08.065Z,79.08
2023-01-29T02:59:41.670Z,79.14
2023-01-29T03:02:20.948Z,78.96
2023-01-29T03:04:55.092Z,79.12
2023-01-29T03:07:52.131Z,78.95
2023-01-29T03:10:37.406Z,78.88
2023-01-29T03:13:12.725Z,79.04
2023-01-29T03:15:47.016Z,78.91
2023-01-29T03:18:19.047Z,78.73
2023-01-29T03:20:53.924Z,78.56
2023-01-29T03:23:52.753Z,78.46
2023-01-29T03:26:41.320Z,78.50
2023-01-29T03:29:28.670Z,78.80
2023-01-29T03:32:08.607Z,78.72
2023-01-29T03:34:45.814Z,78.54
2023-01-29T03:37:19.452Z,78.64
2023-01-29T03:39:46.156Z,78.69
2023-01-29T03:42:15.725Z,78.71
2023-01-29T03:44:51.735Z,78.85
2023-01-29T03:47:33.296Z,79.03
2023-01-29T03:50:05.384Z,79.48
2023-01-29T03:52:39.122Z,79.70
2023-01-29T03:55:13.296Z,80.09
2023-01-29T03:58:22.843Z,80.20
2023-01-29T04:01:14.875Z,80.19
2023-01-29T04:04:33.614Z,80.18
2023-01-29T04:07:33.537Z,80.21
2023-01-29T04:10:12.167Z,80.30
2023-01-29T04:13:05.592Z,80.25
2023-01-29T04:15:38.177Z,80.34
2023-01-29T04:18:05.134Z,80.15
2023-01-29T04:20:31.707Z,80.18
2023-01-29T04:22:58.564Z,80.16
2023-01-29T04:25:30.648Z,79.99
2023-01-29T04:28:20.796Z,80.06
2023-01-29T04:30:58.701Z,80.76
2023-01-29T04:33:31.901Z,81.02
2023-01-29T04:36:16.506Z,81.18
2023-01-29T04:39:18.001Z,81.40
2023-01-29T04:41:55.790Z,82.02
2023-01-29T04:44:50.039Z,82.08
2023-01-29T04:47:29.904Z,82.32
2023-01-29T04:50:09.825Z,82.43
2023-01-29T04:52:58.846Z,82.40
2023-01-29T04:55:53.529Z,82.53
2023-01-29T04:58:20.170Z,82.40
2023-01-29T05:00:50.432Z,82.48
2023-01-29T05:03:17.303Z,82.54
2023-01-29T05:05:49.132Z,82.61
2023-01-29T05:08:20.136Z,82.42
2023-01-29T05:10:51.698Z,82.42
2023-01-29T05:13:44.478Z,82.29
2023-01-29T05:16:21.732Z,82.22
2023-01-29T05:18:48.540Z,82.19
2023-01-29T05:21:15.062Z,82.02
2023-01-29T05:23:59.598Z,82.13
2023-01-29T05:26:46.113Z,81.80
2023-01-29T05:29:12.713Z,81.79
2023-01-29T05:31:39.377Z,81.57
2023-01-29T05:34:05.963Z,81.74
2023-01-29T05:36:32.585Z,81.70
2023-01-29T05:38:59.177Z,81.75
2023-01-29T05:41:25.741Z,81.78
2023-01-29T05:43:52.344Z,81.36
2023-01-29T05:46:18.932Z,81.11
2023-01-29T05:48:45.621Z,81.17
2023-01-29T05:51:12.267Z,81.08
2023-01-29T05:53:38.845Z,80.97
2023-01-29T05:56:05.761Z,80.88
2023-01-29T05:58:34.141Z,80.83
2023-01-29T06:01:18.186Z,80.68
2023-01-29T06:03:46.437Z,80.38
2023-01-29T06:06:13.251Z,80.29
2023-01-29T06:08:40.255Z,80.44
2023-01-29T06:11:11.828Z,80.39
2023-01-29T06:13:39.135Z,80.62
2023-01-29T06:16:07.162Z,80.55
2023-01-29T06:18:33.845Z,80.42
2023-01-29T06:21:02.530Z,80.11
2023-01-29T06:23:30.000Z,80.13
2023-01-29T06:26:05.824Z,79.92
2023-01-29T06:28:32.645Z,79.97
2023-01-29T06:31:21.004Z,79.59
2023-01-29T06:33:48.991Z,79.41
2023-01-29T06:36:15.567Z,79.53
2023-01-29T06:38:42.152Z,79.71
2023-01-29T06:41:13.295Z,79.23
2023-01-29T06:43:40.061Z,79.18
2023-01-29T06:46:08.443Z,78.86
2023-01-29T06:48:35.762Z,78.99
2023-01-29T06:51:07.790Z,79.02
2023-01-29T06:53:35.662Z,78.93
2023-01-29T06:56:02.578Z,79.04
2023-01-29T06:58:29.280Z,78.68
2023-01-29T07:01:06.744Z,78.68
2023-01-29T07:03:33.321Z,78.44
2023-01-29T07:06:00.379Z,78.50
2023-01-29T07:08:27.688Z,78.30
2023-01-29T07:11:00.075Z,78.30
2023-01-29T07:13:26.989Z,77.97
2023-01-29T07:15:53.565Z,77.80
2023-01-29T07:18:28.663Z,77.79
2023-01-29T07:20:56.860Z,77.89
2023-01-29T07:23:24.154Z,78.08
2023-01-29T07:25:51.288Z,77.80
2023-01-29T07:28:18.867Z,77.93
2023-01-29T07:30:45.457Z,78.05
2023-01-29T07:33:12.114Z,78.24
2023-01-29T07:35:43.397Z,78.16
2023-01-29T07:38:11.207Z,78.28
2023-01-29T07:40:38.046Z,78.39
2023-01-29T07:43:07.368Z,78.67
2023-01-29T07:45:36.337Z,78.61
2023-01-29T07:48:05.075Z,78.70
2023-01-29T07:50:35.739Z,78.61
2023-01-29T07:53:02.408Z,78.75
2023-01-29T07:55:31.126Z,78.79
2023-01-29T07:58:03.900Z,78.84
2023-01-29T08:00:37.510Z,78.97
2023-01-29T08:03:11.056Z,79.25
2023-01-29T08:05:38.070Z,79.34
2023-01-29T08:08:07.249Z,79.34
2023-01-29T08:10:37.691Z,79.35
2023-01-29T08:13:05.619Z,79.08
2023-01-29T08:15:37.902Z,78.97
2023-01-29T08:18:05.805Z,79.16
2023-01-29T08:20:32.497Z,79.33
2023-01-29T08:23:04.668Z,79.61
2023-01-29T08:25:32.115Z,79.65
2023-01-29T08:27:59.441Z,79.52
2023-01-29T08:30:31.638Z,79.47
2023-01-29T08:32:58.630Z,79.24
2023-01-29T08:35:25.865Z,78.71
2023-01-29T08:37:54.433Z,78.67
2023-01-29T08:40:21.430Z,78.49
2023-01-29T08:42:48.094Z,78.48
2023-01-29T08:45:14.700Z,78.19
2023-01-29T08:47:50.538Z,78.02
2023-01-29T08:50:18.233Z,77.89
2023-01-29T08:52:45.480Z,78.10
2023-01-29T08:55:16.108Z,78.11
2023-01-29T08:57:42.926Z,78.26
2023-01-29T09:00:11.671Z,77.99
2023-01-29T09:02:38.382Z,78.08
2023-01-29T09:05:05.578Z,78.02
2023-01-29T09:07:33.022Z,77.94
2023-01-29T09:09:59.737Z,78.19
2023-01-29T09:12:26.333Z,78.36
2023-01-29T09:14:53.071Z,78.88
2023-01-29T09:17:24.812Z,79.45
2023-01-29T09:19:53.212Z,79.31
2023-01-29T09:22:20.405Z,79.63
2023-01-29T09:24:47.112Z,80.04
2023-01-29T09:27:14.724Z,80.13
2023-01-29T09:29:41.378Z,80.17
2023-01-29T09:32:07.982Z,79.65
2023-01-29T09:34:35.064Z,79.05
2023-01-29T09:37:01.639Z,78.29
2023-01-29T09:39:28.275Z,77.97
2023-01-29T09:42:08.262Z,77.54
2023-01-29T09:44:53.237Z,77.56
2023-01-29T09:47:28.263Z,77.16
2023-01-29T09:50:18.429Z,76.92
2023-01-29T09:52:55.080Z,76.67
2023-01-29T09:55:32.661Z,76.28
2023-01-29T09:58:35.311Z,76.23
2023-01-29T10:01:31.973Z,76.53
2023-01-29T10:04:21.410Z,76.18
2023-01-29T10:06:47.927Z,75.62
2023-01-29T10:09:36.154Z,75.63
2023-01-29T10:12:20.944Z,75.75
2023-01-29T10:15:02.696Z,75.59
2023-01-29T10:17:35.182Z,75.44
2023-01-29T10:20:27.736Z,74.80
2023-01-29T10:22:57.051Z,74.43
2023-01-29T10:25:24.157Z,74.35
2023-01-29T10:27:57.187Z,73.79
2023-01-29T10:30:39.666Z,73.77
2023-01-29T10:33:17.063Z,73.41
2023-01-29T10:35:50.140Z,73.07
2023-01-29T10:38:42.999Z,73.47
2023-01-29T10:41:47.339Z,73.20
2023-01-29T10:44:31.674Z,72.64
2023-01-29T10:47:10.300Z,72.91
2023-01-29T10:50:14.401Z,72.94
2023-01-29T10:52:59.704Z,72.64
2023-01-29T10:56:01.276Z,72.86
2023-01-29T10:58:43.043Z,73.25
2023-01-29T11:01:10.327Z,72.90
2023-01-29T11:03:37.590Z,72.93
2023-01-29T11:06:17.121Z,72.76
2023-01-29T11:08:52.720Z,73.03
2023-01-29T11:11:22.436Z,73.18
2023-01-29T11:14:00.189Z,73.19
2023-01-29T11:16:30.232Z,73.53
2023-01-29T11:19:01.674Z,73.58
2023-01-29T11:21:29.818Z,73.56
2023-01-29T11:24:07.588Z,73.68
2023-01-29T11:26:38.657Z,73.64
2023-01-29T11:29:05.362Z,73.34
2023-01-29T11:31:39.541Z,73.22
2023-01-29T11:34:16.810Z,72.56
2023-01-29T11:36:45.049Z,72.44
2023-01-29T11:39:19.615Z,72.16
2023-01-29T11:42:04.723Z,71.72
2023-01-29T11:44:33.429Z,71.89
2023-01-29T11:47:14.690Z,71.25
2023-01-29T11:49:46.763Z,70.98
2023-01-29T11:52:15.667Z,70.69
2023-01-29T11:55:02.246Z,70.41
2023-01-29T11:57:39.548Z,70.50
2023-01-29T12:00:23.390Z,70.52
2023-01-29T12:03:12.939Z,70.63
2023-01-29T12:05:41.477Z,70.57
2023-01-29T12:08:18.439Z,70.83
2023-01-29T12:10:45.123Z,70.51
2023-01-29T12:13:15.858Z,70.58
2023-01-29T12:15:43.082Z,70.37
2023-01-29T12:18:32.242Z,70.02
2023-01-29T12:21:25.336Z,69.84
2023-01-29T12:24:01.553Z,70.11
2023-01-29T12:26:35.999Z,70.05
2023-01-29T12:29:20.988Z,69.59
2023-01-29T12:32:10.310Z,69.65
2023-01-29T12:34:46.448Z,69.31
2023-01-29T12:37:40.596Z,69.55
2023-01-29T12:40:16.901Z,69.14
2023-01-29T12:42:48.249Z,68.82
2023-01-29T12:45:28.313Z,69.29
2023-01-29T12:48:02.327Z,69.20
2023-01-29T12:50:34.066Z,69.25
2023-01-29T12:53:27.783Z,69.35
2023-01-29T12:56:05.664Z,69.63
2023-01-29T12:58:35.184Z,69.27
2023-01-29T13:01:13.144Z,69.37
2023-01-29T13:04:08.871Z,69.76
2023-01-29T13:06:50.799Z,69.61
2023-01-29T13:09:21.666Z,69.60
2023-01-29T13:12:07.780Z,69.36
2023-01-29T13:14:58.771Z,69.29
2023-01-29T13:17:42.953Z,69.17
2023-01-29T13:20:23.242Z,69.10
2023-01-29T13:22:54.468Z,69.21
2023-01-29T13:25:21.173Z,69.51
2023-01-29T13:27:49.306Z,69.27
2023-01-29T13:30:31.786Z,69.01
2023-01-29T13:33:11.445Z,69.17
2023-01-29T13:35:45.087Z,69.34
2023-01-29T13:38:45.067Z,68.98
2023-01-29T13:41:12.409Z,69.29
2023-01-29T13:43:42.608Z,69.00
2023-01-29T13:46:12.846Z,69.06
2023-01-29T13:48:46.845Z,69.10
2023-01-29T13:51:19.645Z,68.77
2023-01-29T13:53:58.660Z,68.96
2023-01-29T13:56:56.212Z,69.04
2023-01-29T13:59:55.502Z,69.24
2023-01-29T14:02:27.726Z,68.89
2023-01-29T14:05:32.198Z,69.01
2023-01-29T14:08:14.118Z,69.22
2023-01-29T14:10:43.160Z,69.25
2023-01-29T14:13:18.149Z,69.22
2023-01-29T14:16:05.107Z,69.38
2023-01-29T14:18:34.488Z,69.48
2023-01-29T14:21:07.073Z,69.56
2023-01-29T14:23:36.161Z,69.68
2023-01-29T14:26:06.184Z,69.93
2023-01-29T14:28:34.995Z,69.89
2023-01-29T14:31:03.114Z,70.01
2023-01-29T14:33:42.476Z,69.83
2023-01-29T14:36:13.695Z,70.17
2023-01-29T14:38:46.411Z,70.33
2023-01-29T14:41:29.683Z,70.48
2023-01-29T14:44:41.268Z,70.31
2023-01-29T14:47:18.917Z,70.44
2023-01-29T14:49:57.862Z,70.37
2023-01-29T14:52:40.530Z,70.55
2023-01-29T14:55:15.882Z,70.46
2023-01-29T14:57:43.063Z,70.51
2023-01-29T15:00:28.520Z,70.55
2023-01-29T15:03:01.973Z,70.66
2023-01-29T15:05:35.476Z,71.03
2023-01-29T15:08:30.279Z,70.81
2023-01-29T15:11:19.326Z,70.85
2023-01-29T15:14:07.071Z,71.14
2023-01-29T15:16:52.724Z,71.16
2023-01-29T15:19:48.102Z,71.35
2023-01-29T15:22:19.915Z,71.57
2023-01-29T15:25:01.518Z,71.40
2023-01-29T15:27:29.038Z,71.26
2023-01-29T15:30:01.715Z,71.28
2023-01-29T15:32:33.163Z,71.35
2023-01-29T15:35:00.707Z,71.32
2023-01-29T15:37:32.935Z,71.39
2023-01-29T15:40:01.160Z,71.32
2023-01-29T15:42:29.315Z,71.41
2023-01-29T15:44:56.218Z,71.46
2023-01-29T15:47:30.894Z,71.62
2023-01-29T15:49:58.070Z,71.87
2023-01-29T15:52:35.274Z,71.73
2023-01-29T15:55:06.257Z,71.87
2023-01-29T15:57:41.438Z,71.81
2023-01-29T16:00:20.104Z,71.85
2023-01-29T16:02:46.813Z,72.18
2023-01-29T16:05:23.903Z,72.39
2023-01-29T16:07:51.863Z,72.33
2023-01-29T16:10:30.702Z,72.58
2023-01-29T16:12:58.771Z,72.59
2023-01-29T16:15:38.027Z,72.74
2023-01-29T16:18:21.368Z,72.68
2023-01-29T16:20:53.323Z,72.77
2023-01-29T16:23:31.856Z,72.79
2023-01-29T16:26:03.523Z,72.87
2023-01-29T16:28:30.332Z,72.97
2023-01-29T16:31:01.907Z,73.11
2023-01-29T16:33:36.480Z,73.09
2023-01-29T16:36:11.728Z,73.19
2023-01-29T16:38:43.183Z,73.33
2023-01-29T16:41:22.104Z,73.48
2023-01-29T16:43:56.508Z,73.34
2023-01-29T16:46:36.659Z,73.67
2023-01-29T16:49:26.061Z,73.54
2023-01-29T16:51:53.875Z,73.82
2023-01-29T16:54:27.818Z,73.92
2023-01-29T16:57:00.213Z,74.08
2023-01-29T16:59:36.905Z,73.94
2023-01-29T17:02:04.838Z,74.07
2023-01-29T17:04:33.030Z,74.09
2023-01-29T17:07:01.689Z,74.18
2023-01-29T17:09:34.910Z,74.08
2023-01-29T17:12:05.664Z,74.09
2023-01-29T17:14:33.354Z,74.11
2023-01-29T17:17:14.530Z,74.30
2023-01-29T17:19:41.064Z,74.20
2023-01-29T17:22:15.348Z,74.14
2023-01-29T17:24:42.620Z,74.26
2023-01-29T17:27:27.068Z,74.21
2023-01-29T17:29:54.179Z,74.25
2023-01-29T17:32:20.983Z,74.36
2023-01-29T17:34:47.652Z,74.47
2023-01-29T17:37:16.261Z,74.53
2023-01-29T17:39:44.104Z,74.46
2023-01-29T17:42:15.281Z,74.54
2023-01-29T17:44:43.238Z,74.74
2023-01-29T17:47:13.932Z,74.85
2023-01-29T17:49:44.309Z,74.99
2023-01-29T17:52:11.153Z,75.44
2023-01-29T17:54:37.912Z,75.30
2023-01-29T17:57:04.579Z,75.40
2023-01-29T17:59:33.395Z,75.38
2023-01-29T18:02:00.482Z,75.48
2023-01-29T18:04:27.602Z,75.32
2023-01-29T18:06:55.791Z,75.24
2023-01-29T18:09:22.585Z,75.21
2023-01-29T18:11:50.513Z,75.65
2023-01-29T18:14:17.733Z,75.73
2023-01-29T18:16:45.714Z,75.56
2023-01-29T18:19:31.208Z,75.85
2023-01-29T18:21:58.013Z,75.82
2023-01-29T18:24:26.905Z,75.90
2023-01-29T18:26:53.578Z,75.87
2023-01-29T18:29:30.563Z,75.95
2023-01-29T18:31:57.360Z,76.20
2023-01-29T18:34:24.048Z,76.07
2023-01-29T18:36:50.828Z,76.11
2023-01-29T18:39:17.448Z,76.05
2023-01-29T18:41:44.218Z,76.05
2023-01-29T18:44:11.091Z,76.40
2023-01-29T18:46:37.608Z,76.57
2023-01-29T18:49:05.287Z,76.92
2023-01-29T18:51:31.897Z,77.25
2023-01-29T18:53:58.508Z,77.32
2023-01-29T18:56:25.087Z,77.53
2023-01-29T18:58:55.390Z,78.40
2023-01-29T19:01:23.504Z,78.79
2023-01-29T19:03:51.500Z,79.30
2023-01-29T19:06:19.144Z,79.49
2023-01-29T19:08:47.476Z,79.46
2023-01-29T19:11:14.676Z,79.59
2023-01-29T19:13:42.634Z,79.82
2023-01-29T19:16:11.163Z,79.85
2023-01-29T19:18:38.986Z,80.08
2023-01-29T19:21:10.837Z,80.18
2023-01-29T19:23:38.300Z,80.32
2023-01-29T19:26:05.753Z,80.35
2023-01-29T19:28:32.960Z,80.35
2023-01-29T19:31:00.896Z,80.60
2023-01-29T19:33:28.284Z,80.61
2023-01-29T19:35:59.374Z,80.67
2023-01-29T19:38:26.511Z,80.55
2023-01-29T19:40:55.107Z,80.44
2023-01-29T19:43:21.765Z,80.57
2023-01-29T19:45:50.694Z,80.87
2023-01-29T19:48:21.380Z,80.94
2023-01-29T19:50:59.485Z,81.03
2023-01-29T19:53:28.739Z,81.06
2023-01-29T19:56:02.966Z,81.19
2023-01-29T19:58:30.231Z,81.28
2023-01-29T20:01:15.592Z,81.31
2023-01-29T20:03:42.499Z,81.41
2023-01-29T20:06:09.453Z,81.46
2023-01-29T20:08:37.093Z,81.35
2023-01-29T20:11:05.872Z,81.65
2023-01-29T20:13:33.736Z,82.04
2023-01-29T20:16:05.639Z,81.84
2023-01-29T20:18:32.627Z,81.84
2023-01-29T20:21:00.283Z,81.98
2023-01-29T20:23:37.126Z,82.12
2023-01-29T20:26:09.758Z,82.25
2023-01-29T20:28:36.749Z,82.34
2023-01-29T20:31:05.020Z,82.35
2023-01-29T20:33:32.399Z,82.45
2023-01-29T20:36:02.528Z,82.37
2023-01-29T20:38:31.898Z,82.62
2023-01-29T20:41:16.122Z,82.76
2023-01-29T20:43:44.205Z,82.65
2023-01-29T20:46:11.262Z,82.51
2023-01-29T20:48:38.178Z,82.51
2023-01-29T20:51:14.023Z,82.27
2023-01-29T20:53:43.119Z,82.28
2023-01-29T20:56:11.288Z,82.29
2023-01-29T20:58:38.387Z,82.45
2023-01-29T21:01:16.168Z,82.38
2023-01-29T21:03:43.455Z,82.26
2023-01-29T21:06:11.308Z,82.30
2023-01-29T21:08:38.324Z,82.17
2023-01-29T21:11:08.268Z,82.20
2023-01-29T21:13:35.398Z,82.25
2023-01-29T21:16:02.484Z,82.29
2023-01-29T21:18:29.591Z,82.33
2023-01-29T21:20:56.471Z,82.48
2023-01-29T21:23:23.311Z,82.47
2023-01-29T21:25:50.012Z,82.51
2023-01-29T21:28:16.906Z,82.39
2023-01-29T21:30:43.641Z,82.26
2023-01-29T21:33:10.503Z,81.99
2023-01-29T21:35:38.005Z,81.85
2023-01-29T21:38:05.124Z,81.75
2023-01-29T21:40:32.017Z,81.64
2023-01-29T21:43:15.466Z,81.51
2023-01-29T21:45:43.242Z,81.45
2023-01-29T21:48:11.467Z,81.44
2023-01-29T21:50:38.328Z,81.54
2023-01-29T21:53:05.080Z,81.43
2023-01-29T21:55:32.646Z,81.22
2023-01-29T21:58:00.557Z,81.08
2023-01-29T22:00:28.060Z,81.10
2023-01-29T22:02:55.928Z,80.90
2023-01-29T22:05:22.653Z,80.95
2023-01-29T22:07:50.439Z,81.13
2023-01-29T22:10:18.845Z,81.50
2023-01-29T22:12:47.495Z,81.59
2023-01-29T22:15:14.612Z,81.65
2023-01-29T22:17:43.960Z,81.65
2023-01-29T22:20:13.173Z,81.59
2023-01-29T22:22:40.819Z,81.37
2023-01-29T22:25:07.896Z,81.30
2023-01-29T22:27:34.575Z,81.24
2023-01-29T22:30:01.478Z,81.36
2023-01-29T22:32:28.320Z,81.39
2023-01-29T22:34:57.927Z,81.13
2023-01-29T22:37:24.593Z,80.91
2023-01-29T22:39:51.250Z,80.94
2023-01-29T22:42:20.246Z,80.99
2023-01-29T22:44:48.194Z,80.78
2023-01-29T22:47:15.090Z,80.63
2023-01-29T22:49:44.651Z,80.70
2023-01-29T22:52:11.729Z,80.65
2023-01-29T22:54:43.575Z,80.64
2023-01-29T22:57:12.423Z,80.63
2023-01-29T22:59:42.449Z,80.58
2023-01-29T23:02:09.642Z,80.31
2023-01-29T23:04:36.566Z,80.24
2023-01-29T23:07:03.975Z,80.02
2023-01-29T23:09:30.616Z,80.09
2023-01-29T23:11:57.245Z,80.40
2023-01-29T23:14:23.821Z,80.16
2023-01-29T23:16:50.485Z,80.01
2023-01-29T23:19:17.061Z,80.02
2023-01-29T23:21:43.702Z,79.80
2023-01-29T23:24:10.682Z,80.07
2023-01-29T23:26:55.613Z,79.97
2023-01-29T23:29:22.267Z,80.16
2023-01-29T23:31:49.011Z,80.20
2023-01-29T23:34:15.786Z,79.92
2023-01-29T23:36:43.111Z,80.21
2023-01-29T23:39:09.939Z,79.83
2023-01-29T23:41:36.926Z,79.70
2023-01-29T23:44:04.303Z,79.88
2023-01-29T23:46:31.081Z,79.78
2023-01-29T23:48:57.779Z,79.67
2023-01-29T23:51:24.447Z,79.76
2023-01-29T23:53:51.058Z,79.71
2023-01-29T23:56:17.855Z,79.86
2023-01-29T23:58:44.962Z,79.79
